sensor_id;sensor_type;location;lat;lon;timestamp;P1;durP1;ratioP1;P2;durP2;ratioP2
80623;SDS011;70269;44.768;9.600;2023-11-21T00:00:19;14.60;;;5.70;;
80623;SDS011;70269;44.768;9.600;2023-11-21T00:02:44;13.30;;;6.13;;
80623;SDS011;70269;44.768;9.600;2023-11-21T00:05:11;15.20;;;6.15;;
80623;SDS011;70269;44.768;9.600;2023-11-21T00:07:42;16.83;;;5.82;;
80623;SDS011;70269;44.768;9.600;2023-11-21T00:10:08;13.65;;;5.18;;
80623;SDS011;70269;44.768;9.600;2023-11-21T00:12:35;14.88;;;5.70;;
80623;SDS011;70269;44.768;9.600;2023-11-21T00:15:02;17.40;;;7.20;;
80623;SDS011;70269;44.768;9.600;2023-11-21T00:19:55;14.43;;;5.82;;
80623;SDS011;70269;44.768;9.600;2023-11-21T00:22:21;14.85;;;5.80;;
80623;SDS011;70269;44.768;9.600;2023-11-21T00:24:46;16.92;;;6.47;;
80623;SDS011;70269;44.768;9.600;2023-11-21T00:27:13;15.63;;;5.90;;
80623;SDS011;70269;44.768;9.600;2023-11-21T00:29:38;11.48;;;5.55;;
80623;SDS011;70269;44.768;9.600;2023-11-21T00:32:04;15.32;;;5.88;;
80623;SDS011;70269;44.768;9.600;2023-11-21T00:34:31;17.75;;;6.40;;
80623;SDS011;70269;44.768;9.600;2023-11-21T00:36:56;11.73;;;4.50;;
80623;SDS011;70269;44.768;9.600;2023-11-21T00:39:22;11.75;;;4.97;;
80623;SDS011;70269;44.768;9.600;2023-11-21T00:41:48;11.70;;;5.00;;
80623;SDS011;70269;44.768;9.600;2023-11-21T00:44:13;10.18;;;4.22;;
80623;SDS011;70269;44.768;9.600;2023-11-21T00:46:39;12.50;;;4.43;;
80623;SDS011;70269;44.768;9.600;2023-11-21T00:49:04;12.68;;;5.25;;
80623;SDS011;70269;44.768;9.600;2023-11-21T00:51:30;17.50;;;6.70;;
80623;SDS011;70269;44.768;9.600;2023-11-21T00:53:56;11.68;;;4.90;;
80623;SDS011;70269;44.768;9.600;2023-11-21T00:56:21;12.10;;;4.78;;
80623;SDS011;70269;44.768;9.600;2023-11-21T00:58:47;9.20;;;4.80;;
80623;SDS011;70269;44.768;9.600;2023-11-21T01:01:18;10.80;;;4.25;;
80623;SDS011;70269;44.768;9.600;2023-11-21T01:03:47;10.00;;;4.70;;
80623;SDS011;70269;44.768;9.600;2023-11-21T01:06:14;14.70;;;6.07;;
80623;SDS011;70269;44.768;9.600;2023-11-21T01:08:41;12.35;;;5.05;;
80623;SDS011;70269;44.768;9.600;2023-11-21T01:11:08;10.48;;;5.20;;
80623;SDS011;70269;44.768;9.600;2023-11-21T01:13:35;13.65;;;5.05;;
80623;SDS011;70269;44.768;9.600;2023-11-21T01:16:01;10.82;;;4.93;;
80623;SDS011;70269;44.768;9.600;2023-11-21T01:18:26;18.13;;;6.00;;
80623;SDS011;70269;44.768;9.600;2023-11-21T01:20:52;12.90;;;5.80;;
80623;SDS011;70269;44.768;9.600;2023-11-21T01:23:20;12.90;;;6.03;;
80623;SDS011;70269;44.768;9.600;2023-11-21T01:25:46;13.05;;;6.30;;
80623;SDS011;70269;44.768;9.600;2023-11-21T01:28:11;12.38;;;5.57;;
80623;SDS011;70269;44.768;9.600;2023-11-21T01:30:37;16.05;;;5.78;;
80623;SDS011;70269;44.768;9.600;2023-11-21T01:33:02;13.32;;;5.68;;
80623;SDS011;70269;44.768;9.600;2023-11-21T01:35:29;12.07;;;5.18;;
80623;SDS011;70269;44.768;9.600;2023-11-21T01:37:55;14.57;;;5.32;;
80623;SDS011;70269;44.768;9.600;2023-11-21T01:40:21;10.68;;;5.03;;
80623;SDS011;70269;44.768;9.600;2023-11-21T01:42:47;12.93;;;4.80;;
80623;SDS011;70269;44.768;9.600;2023-11-21T01:45:13;12.25;;;4.93;;
80623;SDS011;70269;44.768;9.600;2023-11-21T01:47:39;10.43;;;5.28;;
80623;SDS011;70269;44.768;9.600;2023-11-21T01:50:07;14.60;;;5.63;;
80623;SDS011;70269;44.768;9.600;2023-11-21T01:52:34;11.00;;;4.25;;
80623;SDS011;70269;44.768;9.600;2023-11-21T01:55:01;12.45;;;5.40;;
80623;SDS011;70269;44.768;9.600;2023-11-21T01:57:27;11.02;;;5.57;;
80623;SDS011;70269;44.768;9.600;2023-11-21T01:59:53;13.38;;;5.60;;
80623;SDS011;70269;44.768;9.600;2023-11-21T02:02:19;14.07;;;5.57;;
80623;SDS011;70269;44.768;9.600;2023-11-21T02:04:45;10.82;;;4.50;;
80623;SDS011;70269;44.768;9.600;2023-11-21T02:07:11;12.60;;;4.90;;
80623;SDS011;70269;44.768;9.600;2023-11-21T02:09:37;10.63;;;4.57;;
80623;SDS011;70269;44.768;9.600;2023-11-21T02:12:08;11.40;;;5.18;;
80623;SDS011;70269;44.768;9.600;2023-11-21T02:14:38;12.93;;;5.72;;
80623;SDS011;70269;44.768;9.600;2023-11-21T02:17:03;11.13;;;5.22;;
80623;SDS011;70269;44.768;9.600;2023-11-21T02:19:31;8.52;;;4.13;;
80623;SDS011;70269;44.768;9.600;2023-11-21T02:21:57;12.18;;;4.13;;
80623;SDS011;70269;44.768;9.600;2023-11-21T02:24:28;12.40;;;4.60;;
80623;SDS011;70269;44.768;9.600;2023-11-21T02:26:54;9.18;;;4.57;;
80623;SDS011;70269;44.768;9.600;2023-11-21T02:29:20;10.15;;;5.82;;
80623;SDS011;70269;44.768;9.600;2023-11-21T02:31:55;10.52;;;4.78;;
80623;SDS011;70269;44.768;9.600;2023-11-21T02:34:21;12.43;;;5.40;;
80623;SDS011;70269;44.768;9.600;2023-11-21T02:36:48;15.50;;;5.95;;
80623;SDS011;70269;44.768;9.600;2023-11-21T02:39:16;9.52;;;4.72;;
80623;SDS011;70269;44.768;9.600;2023-11-21T02:41:43;12.63;;;6.63;;
80623;SDS011;70269;44.768;9.600;2023-11-21T02:44:09;12.48;;;5.70;;
80623;SDS011;70269;44.768;9.600;2023-11-21T02:46:36;13.18;;;5.47;;
80623;SDS011;70269;44.768;9.600;2023-11-21T02:49:05;11.02;;;4.68;;
80623;SDS011;70269;44.768;9.600;2023-11-21T02:54:05;9.75;;;5.00;;
80623;SDS011;70269;44.768;9.600;2023-11-21T02:56:33;8.32;;;3.53;;
80623;SDS011;70269;44.768;9.600;2023-11-21T02:58:59;11.73;;;4.78;;
80623;SDS011;70269;44.768;9.600;2023-11-21T03:01:26;10.73;;;3.83;;
80623;SDS011;70269;44.768;9.600;2023-11-21T03:03:52;9.82;;;4.18;;
80623;SDS011;70269;44.768;9.600;2023-11-21T03:06:21;8.57;;;4.45;;
80623;SDS011;70269;44.768;9.600;2023-11-21T03:08:48;8.52;;;3.38;;
80623;SDS011;70269;44.768;9.600;2023-11-21T03:11:14;10.45;;;4.85;;
80623;SDS011;70269;44.768;9.600;2023-11-21T03:13:40;11.65;;;5.05;;
80623;SDS011;70269;44.768;9.600;2023-11-21T03:16:09;8.95;;;3.92;;
80623;SDS011;70269;44.768;9.600;2023-11-21T03:18:38;8.73;;;4.03;;
80623;SDS011;70269;44.768;9.600;2023-11-21T03:21:05;11.00;;;3.58;;
80623;SDS011;70269;44.768;9.600;2023-11-21T03:23:32;9.20;;;3.30;;
80623;SDS011;70269;44.768;9.600;2023-11-21T03:25:58;10.32;;;4.18;;
80623;SDS011;70269;44.768;9.600;2023-11-21T03:28:25;8.13;;;3.67;;
80623;SDS011;70269;44.768;9.600;2023-11-21T03:30:52;11.93;;;3.83;;
80623;SDS011;70269;44.768;9.600;2023-11-21T03:33:17;10.68;;;4.05;;
80623;SDS011;70269;44.768;9.600;2023-11-21T03:35:43;7.38;;;3.45;;
80623;SDS011;70269;44.768;9.600;2023-11-21T03:38:10;11.50;;;4.72;;
80623;SDS011;70269;44.768;9.600;2023-11-21T03:40:36;8.27;;;3.20;;
80623;SDS011;70269;44.768;9.600;2023-11-21T03:43:02;8.60;;;4.00;;
80623;SDS011;70269;44.768;9.600;2023-11-21T03:45:28;10.63;;;4.07;;
80623;SDS011;70269;44.768;9.600;2023-11-21T03:47:54;12.73;;;4.72;;
80623;SDS011;70269;44.768;9.600;2023-11-21T03:50:19;8.50;;;4.28;;
80623;SDS011;70269;44.768;9.600;2023-11-21T03:52:45;9.40;;;4.10;;
80623;SDS011;70269;44.768;9.600;2023-11-21T03:55:10;10.93;;;4.10;;
80623;SDS011;70269;44.768;9.600;2023-11-21T03:57:36;8.88;;;4.47;;
80623;SDS011;70269;44.768;9.600;2023-11-21T04:00:03;11.95;;;4.72;;
80623;SDS011;70269;44.768;9.600;2023-11-21T04:02:37;11.00;;;4.68;;
80623;SDS011;70269;44.768;9.600;2023-11-21T04:05:03;21.95;;;10.85;;
80623;SDS011;70269;44.768;9.600;2023-11-21T04:07:29;13.95;;;6.75;;
80623;SDS011;70269;44.768;9.600;2023-11-21T04:09:54;16.58;;;6.50;;
80623;SDS011;70269;44.768;9.600;2023-11-21T04:12:20;14.13;;;5.32;;
80623;SDS011;70269;44.768;9.600;2023-11-21T04:14:45;12.43;;;6.10;;
80623;SDS011;70269;44.768;9.600;2023-11-21T04:17:12;11.30;;;5.18;;
80623;SDS011;70269;44.768;9.600;2023-11-21T04:19:37;14.65;;;6.18;;
80623;SDS011;70269;44.768;9.600;2023-11-21T04:22:03;17.00;;;6.25;;
80623;SDS011;70269;44.768;9.600;2023-11-21T04:24:29;14.15;;;6.03;;
80623;SDS011;70269;44.768;9.600;2023-11-21T04:26:54;14.77;;;7.00;;
80623;SDS011;70269;44.768;9.600;2023-11-21T04:29:20;14.63;;;8.05;;
80623;SDS011;70269;44.768;9.600;2023-11-21T04:31:46;12.02;;;6.70;;
80623;SDS011;70269;44.768;9.600;2023-11-21T04:34:14;13.07;;;7.68;;
80623;SDS011;70269;44.768;9.600;2023-11-21T04:36:41;16.90;;;8.45;;
80623;SDS011;70269;44.768;9.600;2023-11-21T04:39:06;13.50;;;7.32;;
80623;SDS011;70269;44.768;9.600;2023-11-21T04:41:32;17.27;;;7.03;;
80623;SDS011;70269;44.768;9.600;2023-11-21T04:43:57;11.57;;;5.88;;
80623;SDS011;70269;44.768;9.600;2023-11-21T04:46:26;11.02;;;5.68;;
80623;SDS011;70269;44.768;9.600;2023-11-21T04:48:51;12.15;;;6.53;;
80623;SDS011;70269;44.768;9.600;2023-11-21T04:51:18;17.13;;;8.07;;
80623;SDS011;70269;44.768;9.600;2023-11-21T04:53:43;20.13;;;9.38;;
80623;SDS011;70269;44.768;9.600;2023-11-21T04:56:09;18.85;;;10.88;;
80623;SDS011;70269;44.768;9.600;2023-11-21T04:58:34;26.20;;;11.35;;
80623;SDS011;70269;44.768;9.600;2023-11-21T05:01:00;28.23;;;11.95;;
80623;SDS011;70269;44.768;9.600;2023-11-21T05:03:26;25.90;;;12.57;;
80623;SDS011;70269;44.768;9.600;2023-11-21T05:05:51;25.05;;;13.20;;
80623;SDS011;70269;44.768;9.600;2023-11-21T05:08:17;28.95;;;13.68;;
80623;SDS011;70269;44.768;9.600;2023-11-21T05:10:44;24.10;;;12.20;;
80623;SDS011;70269;44.768;9.600;2023-11-21T05:13:09;25.17;;;13.70;;
80623;SDS011;70269;44.768;9.600;2023-11-21T05:15:38;27.45;;;13.73;;
80623;SDS011;70269;44.768;9.600;2023-11-21T05:18:04;25.63;;;13.00;;
80623;SDS011;70269;44.768;9.600;2023-11-21T05:20:30;27.00;;;12.48;;
80623;SDS011;70269;44.768;9.600;2023-11-21T05:22:56;26.38;;;12.63;;
80623;SDS011;70269;44.768;9.600;2023-11-21T05:25:21;23.55;;;12.93;;
80623;SDS011;70269;44.768;9.600;2023-11-21T05:27:47;21.25;;;12.00;;
80623;SDS011;70269;44.768;9.600;2023-11-21T05:30:14;22.48;;;12.43;;
80623;SDS011;70269;44.768;9.600;2023-11-21T05:32:40;27.25;;;13.88;;
80623;SDS011;70269;44.768;9.600;2023-11-21T05:35:09;29.08;;;13.00;;
80623;SDS011;70269;44.768;9.600;2023-11-21T05:37:40;26.05;;;12.23;;
80623;SDS011;70269;44.768;9.600;2023-11-21T05:40:07;22.90;;;11.20;;
80623;SDS011;70269;44.768;9.600;2023-11-21T05:42:34;21.50;;;11.65;;
80623;SDS011;70269;44.768;9.600;2023-11-21T05:45:00;20.08;;;11.27;;
80623;SDS011;70269;44.768;9.600;2023-11-21T05:47:38;21.30;;;10.98;;
80623;SDS011;70269;44.768;9.600;2023-11-21T05:50:09;22.45;;;10.95;;
80623;SDS011;70269;44.768;9.600;2023-11-21T05:52:42;18.05;;;10.30;;
80623;SDS011;70269;44.768;9.600;2023-11-21T05:55:10;20.67;;;10.73;;
80623;SDS011;70269;44.768;9.600;2023-11-21T05:57:36;21.77;;;9.57;;
80623;SDS011;70269;44.768;9.600;2023-11-21T06:00:06;20.27;;;9.80;;
80623;SDS011;70269;44.768;9.600;2023-11-21T06:02:37;18.80;;;9.20;;
80623;SDS011;70269;44.768;9.600;2023-11-21T06:05:04;21.40;;;9.85;;
80623;SDS011;70269;44.768;9.600;2023-11-21T06:07:30;17.88;;;10.13;;
80623;SDS011;70269;44.768;9.600;2023-11-21T06:09:55;17.45;;;10.00;;
80623;SDS011;70269;44.768;9.600;2023-11-21T06:12:22;21.55;;;10.80;;
80623;SDS011;70269;44.768;9.600;2023-11-21T06:14:48;21.20;;;9.55;;
80623;SDS011;70269;44.768;9.600;2023-11-21T06:17:13;21.15;;;10.55;;
80623;SDS011;70269;44.768;9.600;2023-11-21T06:19:39;17.90;;;9.70;;
80623;SDS011;70269;44.768;9.600;2023-11-21T06:22:05;19.85;;;9.85;;
80623;SDS011;70269;44.768;9.600;2023-11-21T06:24:31;20.02;;;10.43;;
80623;SDS011;70269;44.768;9.600;2023-11-21T06:26:57;20.67;;;9.13;;
80623;SDS011;70269;44.768;9.600;2023-11-21T06:29:22;19.05;;;9.73;;
80623;SDS011;70269;44.768;9.600;2023-11-21T06:31:49;16.00;;;8.38;;
80623;SDS011;70269;44.768;9.600;2023-11-21T06:34:14;20.00;;;9.57;;
80623;SDS011;70269;44.768;9.600;2023-11-21T06:36:40;14.93;;;9.20;;
80623;SDS011;70269;44.768;9.600;2023-11-21T06:39:06;17.25;;;9.77;;
80623;SDS011;70269;44.768;9.600;2023-11-21T06:41:33;16.90;;;8.65;;
80623;SDS011;70269;44.768;9.600;2023-11-21T06:43:59;19.92;;;9.35;;
80623;SDS011;70269;44.768;9.600;2023-11-21T06:46:26;20.23;;;9.73;;
80623;SDS011;70269;44.768;9.600;2023-11-21T06:48:52;17.40;;;8.65;;
80623;SDS011;70269;44.768;9.600;2023-11-21T06:51:17;16.42;;;8.93;;
80623;SDS011;70269;44.768;9.600;2023-11-21T06:53:43;19.40;;;10.05;;
80623;SDS011;70269;44.768;9.600;2023-11-21T06:56:15;22.35;;;10.50;;
80623;SDS011;70269;44.768;9.600;2023-11-21T06:58:44;17.38;;;9.80;;
80623;SDS011;70269;44.768;9.600;2023-11-21T07:01:14;18.73;;;9.80;;
80623;SDS011;70269;44.768;9.600;2023-11-21T07:03:40;21.90;;;9.82;;
80623;SDS011;70269;44.768;9.600;2023-11-21T07:06:06;17.60;;;8.25;;
80623;SDS011;70269;44.768;9.600;2023-11-21T07:08:33;19.50;;;10.02;;
80623;SDS011;70269;44.768;9.600;2023-11-21T07:10:58;17.65;;;10.07;;
80623;SDS011;70269;44.768;9.600;2023-11-21T07:13:24;18.92;;;8.50;;
80623;SDS011;70269;44.768;9.600;2023-11-21T07:15:49;21.95;;;9.85;;
80623;SDS011;70269;44.768;9.600;2023-11-21T07:18:15;22.30;;;8.65;;
80623;SDS011;70269;44.768;9.600;2023-11-21T07:20:40;21.17;;;10.40;;
80623;SDS011;70269;44.768;9.600;2023-11-21T07:23:06;19.58;;;9.25;;
80623;SDS011;70269;44.768;9.600;2023-11-21T07:25:32;20.55;;;10.20;;
80623;SDS011;70269;44.768;9.600;2023-11-21T07:27:59;21.33;;;10.35;;
80623;SDS011;70269;44.768;9.600;2023-11-21T07:30:25;23.05;;;9.48;;
80623;SDS011;70269;44.768;9.600;2023-11-21T07:32:51;19.38;;;9.60;;
80623;SDS011;70269;44.768;9.600;2023-11-21T07:35:17;18.50;;;10.32;;
80623;SDS011;70269;44.768;9.600;2023-11-21T07:37:42;21.52;;;10.27;;
80623;SDS011;70269;44.768;9.600;2023-11-21T07:40:08;19.98;;;10.45;;
80623;SDS011;70269;44.768;9.600;2023-11-21T07:42:37;18.77;;;9.93;;
80623;SDS011;70269;44.768;9.600;2023-11-21T07:45:04;16.15;;;9.20;;
80623;SDS011;70269;44.768;9.600;2023-11-21T07:47:32;19.45;;;9.02;;
80623;SDS011;70269;44.768;9.600;2023-11-21T07:49:59;17.85;;;10.13;;
80623;SDS011;70269;44.768;9.600;2023-11-21T07:52:28;22.00;;;10.65;;
80623;SDS011;70269;44.768;9.600;2023-11-21T07:54:54;23.60;;;10.30;;
80623;SDS011;70269;44.768;9.600;2023-11-21T07:57:19;19.83;;;10.55;;
80623;SDS011;70269;44.768;9.600;2023-11-21T07:59:45;22.27;;;10.82;;
80623;SDS011;70269;44.768;9.600;2023-11-21T08:02:10;21.77;;;11.38;;
80623;SDS011;70269;44.768;9.600;2023-11-21T08:04:36;22.20;;;10.68;;
80623;SDS011;70269;44.768;9.600;2023-11-21T08:07:03;22.90;;;11.23;;
80623;SDS011;70269;44.768;9.600;2023-11-21T08:09:29;22.95;;;10.95;;
80623;SDS011;70269;44.768;9.600;2023-11-21T08:11:55;22.67;;;10.77;;
80623;SDS011;70269;44.768;9.600;2023-11-21T08:14:21;21.33;;;12.40;;
80623;SDS011;70269;44.768;9.600;2023-11-21T08:16:50;26.38;;;11.85;;
80623;SDS011;70269;44.768;9.600;2023-11-21T08:19:17;27.17;;;11.43;;
80623;SDS011;70269;44.768;9.600;2023-11-21T08:21:44;24.05;;;11.25;;
80623;SDS011;70269;44.768;9.600;2023-11-21T08:24:10;23.98;;;11.02;;
80623;SDS011;70269;44.768;9.600;2023-11-21T08:26:36;19.90;;;10.23;;
80623;SDS011;70269;44.768;9.600;2023-11-21T08:29:03;19.73;;;10.90;;
80623;SDS011;70269;44.768;9.600;2023-11-21T08:31:28;22.33;;;10.45;;
80623;SDS011;70269;44.768;9.600;2023-11-21T08:33:54;24.02;;;10.88;;
80623;SDS011;70269;44.768;9.600;2023-11-21T08:36:23;21.02;;;10.13;;
80623;SDS011;70269;44.768;9.600;2023-11-21T08:38:50;21.00;;;9.73;;
80623;SDS011;70269;44.768;9.600;2023-11-21T08:41:19;21.27;;;11.05;;
80623;SDS011;70269;44.768;9.600;2023-11-21T08:43:47;23.17;;;10.82;;
80623;SDS011;70269;44.768;9.600;2023-11-21T08:48:40;19.60;;;9.55;;
80623;SDS011;70269;44.768;9.600;2023-11-21T08:51:06;20.00;;;10.07;;
80623;SDS011;70269;44.768;9.600;2023-11-21T08:53:32;21.10;;;10.27;;
80623;SDS011;70269;44.768;9.600;2023-11-21T08:55:58;22.02;;;9.93;;
80623;SDS011;70269;44.768;9.600;2023-11-21T08:58:24;19.70;;;9.73;;
80623;SDS011;70269;44.768;9.600;2023-11-21T09:00:50;18.52;;;10.05;;
80623;SDS011;70269;44.768;9.600;2023-11-21T09:03:16;20.10;;;10.32;;
80623;SDS011;70269;44.768;9.600;2023-11-21T09:05:41;23.95;;;10.88;;
80623;SDS011;70269;44.768;9.600;2023-11-21T09:08:07;20.05;;;10.57;;
80623;SDS011;70269;44.768;9.600;2023-11-21T09:10:33;24.08;;;11.55;;
80623;SDS011;70269;44.768;9.600;2023-11-21T09:13:01;26.38;;;12.15;;
80623;SDS011;70269;44.768;9.600;2023-11-21T09:15:27;20.92;;;10.75;;
80623;SDS011;70269;44.768;9.600;2023-11-21T09:17:53;19.70;;;10.45;;
80623;SDS011;70269;44.768;9.600;2023-11-21T09:20:19;22.58;;;11.75;;
80623;SDS011;70269;44.768;9.600;2023-11-21T09:22:48;22.77;;;10.95;;
80623;SDS011;70269;44.768;9.600;2023-11-21T09:25:16;25.35;;;12.43;;
80623;SDS011;70269;44.768;9.600;2023-11-21T09:27:41;21.50;;;11.60;;
80623;SDS011;70269;44.768;9.600;2023-11-21T09:30:07;24.80;;;11.32;;
80623;SDS011;70269;44.768;9.600;2023-11-21T09:32:37;28.50;;;14.23;;
80623;SDS011;70269;44.768;9.600;2023-11-21T09:35:06;22.98;;;13.75;;
80623;SDS011;70269;44.768;9.600;2023-11-21T09:37:35;31.95;;;14.45;;
80623;SDS011;70269;44.768;9.600;2023-11-21T09:40:03;33.50;;;15.35;;
80623;SDS011;70269;44.768;9.600;2023-11-21T09:42:38;29.70;;;15.07;;
80623;SDS011;70269;44.768;9.600;2023-11-21T09:47:45;31.05;;;15.52;;
80623;SDS011;70269;44.768;9.600;2023-11-21T09:50:12;37.53;;;15.40;;
80623;SDS011;70269;44.768;9.600;2023-11-21T09:55:42;34.70;;;16.60;;
80623;SDS011;70269;44.768;9.600;2023-11-21T09:58:09;29.88;;;15.32;;
80623;SDS011;70269;44.768;9.600;2023-11-21T10:00:41;28.83;;;15.38;;
80623;SDS011;70269;44.768;9.600;2023-11-21T10:03:08;31.92;;;14.82;;
80623;SDS011;70269;44.768;9.600;2023-11-21T10:05:34;33.90;;;15.07;;
80623;SDS011;70269;44.768;9.600;2023-11-21T10:08:01;36.28;;;16.67;;
80623;SDS011;70269;44.768;9.600;2023-11-21T10:10:29;32.67;;;15.48;;
80623;SDS011;70269;44.768;9.600;2023-11-21T10:12:57;31.13;;;15.63;;
80623;SDS011;70269;44.768;9.600;2023-11-21T10:15:28;29.08;;;14.75;;
80623;SDS011;70269;44.768;9.600;2023-11-21T10:17:55;28.60;;;14.65;;
80623;SDS011;70269;44.768;9.600;2023-11-21T10:20:22;26.27;;;13.50;;
80623;SDS011;70269;44.768;9.600;2023-11-21T10:22:49;30.85;;;13.88;;
80623;SDS011;70269;44.768;9.600;2023-11-21T10:25:15;34.88;;;15.20;;
80623;SDS011;70269;44.768;9.600;2023-11-21T10:27:42;28.30;;;14.65;;
80623;SDS011;70269;44.768;9.600;2023-11-21T10:30:08;30.38;;;14.98;;
80623;SDS011;70269;44.768;9.600;2023-11-21T10:32:41;30.13;;;13.80;;
80623;SDS011;70269;44.768;9.600;2023-11-21T10:35:08;26.92;;;13.50;;
80623;SDS011;70269;44.768;9.600;2023-11-21T10:40:09;30.40;;;12.30;;
80623;SDS011;70269;44.768;9.600;2023-11-21T10:42:39;27.38;;;13.57;;
80623;SDS011;70269;44.768;9.600;2023-11-21T10:45:06;31.58;;;13.18;;
80623;SDS011;70269;44.768;9.600;2023-11-21T10:47:41;32.25;;;17.67;;
80623;SDS011;70269;44.768;9.600;2023-11-21T10:50:07;31.90;;;16.35;;
80623;SDS011;70269;44.768;9.600;2023-11-21T10:52:37;31.95;;;17.95;;
80623;SDS011;70269;44.768;9.600;2023-11-21T10:55:19;37.47;;;18.17;;
80623;SDS011;70269;44.768;9.600;2023-11-21T10:57:56;38.53;;;18.80;;
80623;SDS011;70269;44.768;9.600;2023-11-21T11:00:26;37.63;;;17.83;;
80623;SDS011;70269;44.768;9.600;2023-11-21T11:02:52;33.50;;;16.98;;
80623;SDS011;70269;44.768;9.600;2023-11-21T11:05:25;33.13;;;15.75;;
80623;SDS011;70269;44.768;9.600;2023-11-21T11:08:06;27.75;;;13.98;;
80623;SDS011;70269;44.768;9.600;2023-11-21T11:10:33;27.25;;;12.88;;
80623;SDS011;70269;44.768;9.600;2023-11-21T11:13:00;27.85;;;13.68;;
80623;SDS011;70269;44.768;9.600;2023-11-21T11:15:27;33.88;;;13.80;;
80623;SDS011;70269;44.768;9.600;2023-11-21T11:17:53;30.85;;;14.40;;
80623;SDS011;70269;44.768;9.600;2023-11-21T11:20:25;29.25;;;14.00;;
80623;SDS011;70269;44.768;9.600;2023-11-21T11:29:00;27.23;;;13.63;;
80623;SDS011;70269;44.768;9.600;2023-11-21T11:31:44;28.27;;;12.52;;
80623;SDS011;70269;44.768;9.600;2023-11-21T11:34:34;26.52;;;11.73;;
80623;SDS011;70269;44.768;9.600;2023-11-21T11:37:06;22.60;;;11.23;;
80623;SDS011;70269;44.768;9.600;2023-11-21T11:39:37;27.20;;;11.82;;
80623;SDS011;70269;44.768;9.600;2023-11-21T11:42:12;28.13;;;12.82;;
80623;SDS011;70269;44.768;9.600;2023-11-21T11:47:15;25.33;;;10.27;;
80623;SDS011;70269;44.768;9.600;2023-11-21T11:49:58;22.10;;;10.80;;
80623;SDS011;70269;44.768;9.600;2023-11-21T11:52:40;26.65;;;11.68;;
80623;SDS011;70269;44.768;9.600;2023-11-21T11:55:11;29.48;;;11.27;;
80623;SDS011;70269;44.768;9.600;2023-11-21T11:57:48;28.02;;;10.27;;
80623;SDS011;70269;44.768;9.600;2023-11-21T12:02:55;21.77;;;10.15;;
80623;SDS011;70269;44.768;9.600;2023-11-21T12:05:29;24.98;;;11.48;;
80623;SDS011;70269;44.768;9.600;2023-11-21T12:07:59;26.17;;;11.43;;
80623;SDS011;70269;44.768;9.600;2023-11-21T12:10:27;24.50;;;11.70;;
80623;SDS011;70269;44.768;9.600;2023-11-21T12:15:20;20.05;;;8.55;;
80623;SDS011;70269;44.768;9.600;2023-11-21T12:17:47;21.27;;;9.15;;
80623;SDS011;70269;44.768;9.600;2023-11-21T12:20:14;23.75;;;9.05;;
80623;SDS011;70269;44.768;9.600;2023-11-21T12:22:45;20.50;;;10.23;;
80623;SDS011;70269;44.768;9.600;2023-11-21T12:25:18;24.33;;;9.65;;
80623;SDS011;70269;44.768;9.600;2023-11-21T12:27:46;25.75;;;11.60;;
80623;SDS011;70269;44.768;9.600;2023-11-21T12:30:15;21.23;;;9.07;;
80623;SDS011;70269;44.768;9.600;2023-11-21T12:32:48;21.65;;;9.43;;
80623;SDS011;70269;44.768;9.600;2023-11-21T12:35:17;26.55;;;10.13;;
80623;SDS011;70269;44.768;9.600;2023-11-21T12:37:44;20.92;;;9.27;;
80623;SDS011;70269;44.768;9.600;2023-11-21T12:40:12;22.00;;;8.98;;
80623;SDS011;70269;44.768;9.600;2023-11-21T12:42:44;19.92;;;9.18;;
80623;SDS011;70269;44.768;9.600;2023-11-21T12:45:24;25.83;;;10.27;;
80623;SDS011;70269;44.768;9.600;2023-11-21T12:50:34;26.13;;;10.27;;
80623;SDS011;70269;44.768;9.600;2023-11-21T12:55:32;28.17;;;10.18;;
80623;SDS011;70269;44.768;9.600;2023-11-21T12:58:01;24.67;;;10.13;;
80623;SDS011;70269;44.768;9.600;2023-11-21T13:00:35;25.48;;;10.30;;
80623;SDS011;70269;44.768;9.600;2023-11-21T13:03:03;21.75;;;8.77;;
80623;SDS011;70269;44.768;9.600;2023-11-21T13:05:32;21.73;;;10.10;;
80623;SDS011;70269;44.768;9.600;2023-11-21T13:08:00;23.30;;;11.20;;
80623;SDS011;70269;44.768;9.600;2023-11-21T13:10:28;29.98;;;11.32;;
80623;SDS011;70269;44.768;9.600;2023-11-21T13:12:59;25.73;;;10.13;;
80623;SDS011;70269;44.768;9.600;2023-11-21T13:15:28;26.70;;;11.30;;
80623;SDS011;70269;44.768;9.600;2023-11-21T13:17:57;26.73;;;11.45;;
80623;SDS011;70269;44.768;9.600;2023-11-21T13:20:23;25.10;;;11.07;;
80623;SDS011;70269;44.768;9.600;2023-11-21T13:22:50;26.60;;;9.98;;
80623;SDS011;70269;44.768;9.600;2023-11-21T13:25:27;16.63;;;8.20;;
80623;SDS011;70269;44.768;9.600;2023-11-21T13:27:54;24.10;;;10.30;;
80623;SDS011;70269;44.768;9.600;2023-11-21T13:30:20;18.45;;;10.10;;
80623;SDS011;70269;44.768;9.600;2023-11-21T13:32:53;24.73;;;9.93;;
80623;SDS011;70269;44.768;9.600;2023-11-21T13:35:22;34.08;;;13.60;;
80623;SDS011;70269;44.768;9.600;2023-11-21T13:37:56;21.60;;;10.63;;
80623;SDS011;70269;44.768;9.600;2023-11-21T13:40:25;24.95;;;12.57;;
80623;SDS011;70269;44.768;9.600;2023-11-21T13:42:55;31.92;;;14.35;;
80623;SDS011;70269;44.768;9.600;2023-11-21T13:45:25;28.30;;;14.13;;
80623;SDS011;70269;44.768;9.600;2023-11-21T13:47:53;39.70;;;16.10;;
80623;SDS011;70269;44.768;9.600;2023-11-21T13:50:25;38.28;;;15.85;;
80623;SDS011;70269;44.768;9.600;2023-11-21T13:53:01;31.80;;;13.90;;
80623;SDS011;70269;44.768;9.600;2023-11-21T13:55:47;34.03;;;15.95;;
80623;SDS011;70269;44.768;9.600;2023-11-21T13:58:14;29.08;;;13.32;;
80623;SDS011;70269;44.768;9.600;2023-11-21T14:00:45;29.13;;;13.70;;
80623;SDS011;70269;44.768;9.600;2023-11-21T14:03:14;32.72;;;14.48;;
80623;SDS011;70269;44.768;9.600;2023-11-21T14:05:45;27.88;;;13.77;;
80623;SDS011;70269;44.768;9.600;2023-11-21T14:08:20;38.10;;;15.50;;
80623;SDS011;70269;44.768;9.600;2023-11-21T14:10:47;30.42;;;14.32;;
80623;SDS011;70269;44.768;9.600;2023-11-21T14:13:18;31.88;;;15.60;;
80623;SDS011;70269;44.768;9.600;2023-11-21T14:15:45;35.80;;;17.42;;
80623;SDS011;70269;44.768;9.600;2023-11-21T14:18:12;39.28;;;15.90;;
80623;SDS011;70269;44.768;9.600;2023-11-21T14:20:42;33.63;;;15.23;;
80623;SDS011;70269;44.768;9.600;2023-11-21T14:23:09;38.15;;;17.13;;
80623;SDS011;70269;44.768;9.600;2023-11-21T14:25:36;31.60;;;17.88;;
80623;SDS011;70269;44.768;9.600;2023-11-21T14:28:03;31.20;;;14.55;;
80623;SDS011;70269;44.768;9.600;2023-11-21T14:30:31;35.85;;;17.85;;
80623;SDS011;70269;44.768;9.600;2023-11-21T14:33:02;34.03;;;15.55;;
80623;SDS011;70269;44.768;9.600;2023-11-21T14:35:28;43.90;;;18.95;;
80623;SDS011;70269;44.768;9.600;2023-11-21T14:37:57;44.97;;;19.38;;
80623;SDS011;70269;44.768;9.600;2023-11-21T14:40:27;29.70;;;14.52;;
80623;SDS011;70269;44.768;9.600;2023-11-21T14:42:58;31.38;;;15.88;;
80623;SDS011;70269;44.768;9.600;2023-11-21T14:45:30;38.35;;;16.02;;
80623;SDS011;70269;44.768;9.600;2023-11-21T15:00:22;43.92;;;22.13;;
80623;SDS011;70269;44.768;9.600;2023-11-21T15:03:07;38.00;;;18.23;;
80623;SDS011;70269;44.768;9.600;2023-11-21T15:05:34;37.60;;;18.42;;
80623;SDS011;70269;44.768;9.600;2023-11-21T15:08:05;41.72;;;18.80;;
80623;SDS011;70269;44.768;9.600;2023-11-21T15:10:43;38.55;;;17.52;;
80623;SDS011;70269;44.768;9.600;2023-11-21T15:13:14;37.42;;;18.15;;
80623;SDS011;70269;44.768;9.600;2023-11-21T15:15:41;35.42;;;16.98;;
80623;SDS011;70269;44.768;9.600;2023-11-21T15:18:07;37.42;;;17.98;;